Time;durP1;ratioP1;P1;durP2;ratioP2;P2;SDS_P1;SDS_P2;PMS_P1;PMS_P2;Temp;Humidity;BMP_temperature;BMP_pressure;BME280_temperature;BME280_humidity;BME280_pressure;Samples;Min_cycle;Max_cycle;Signal;HPM_P1;HPM_P2
2022/12/30 00:02:08;;;;;;;21.13;3.92;;;6.10;99.90;;;;;;5082242;28;20071;-45
2022/12/30 00:04:34;;;;;;;20.08;3.95;;;6.20;99.90;;;;;;5070244;28;20048;-48
2022/12/30 00:07:00;;;;;;;23.27;4.15;;;6.20;99.90;;;;;;5075260;28;20052;-45
2022/12/30 00:09:26;;;;;;;17.05;3.95;;;6.00;99.90;;;;;;5074832;28;20036;-45
2022/12/30 00:11:51;;;;;;;21.25;3.83;;;6.00;99.90;;;;;;5077939;28;20045;-46
2022/12/30 00:34:09;;;;;;;20.83;3.60;;;5.90;99.90;;;;;;5069983;28;20044;-45
2022/12/30 00:36:36;;;;;;;26.73;4.00;;;5.80;99.90;;;;;;5070229;28;20037;-50
2022/12/30 00:39:02;;;;;;;22.23;3.70;;;6.70;99.90;;;;;;5072245;28;20086;-48
2022/12/30 00:44:12;;;;;;;24.77;3.90;;;5.80;99.90;;;;;;5069610;28;20055;-45
2022/12/30 00:46:40;;;;;;;22.35;3.60;;;5.80;99.90;;;;;;5074829;28;20041;-45
2022/12/30 00:57:18;;;;;;;18.55;3.17;;;5.90;99.90;;;;;;5070267;28;20032;-47
2022/12/30 00:59:44;;;;;;;17.00;3.75;;;5.90;99.90;;;;;;5070779;28;20036;-46
2022/12/30 01:02:10;;;;;;;26.20;3.95;;;5.80;99.90;;;;;;5072612;28;20044;-45
2022/12/30 01:04:35;;;;;;;17.48;3.67;;;5.70;99.90;;;;;;5069903;28;20040;-46
2022/12/30 01:07:01;;;;;;;18.83;3.20;;;5.70;99.90;;;;;;5068804;28;20036;-47
2022/12/30 01:09:26;;;;;;;16.17;3.33;;;5.60;99.90;;;;;;5070016;28;20372;-47
2022/12/30 01:12:07;;;;;;;23.08;4.00;;;5.80;99.90;;;;;;5080821;28;20173;-45
2022/12/30 01:14:48;;;;;;;16.40;3.58;;;5.70;99.90;;;;;;5076853;28;20391;-48
2022/12/30 01:17:24;;;;;;;20.20;3.92;;;5.70;99.90;;;;;;5074319;28;20478;-47
2022/12/30 01:19:49;;;;;;;22.92;3.58;;;5.60;99.90;;;;;;5069612;28;20032;-50
2022/12/30 01:22:16;;;;;;;17.83;3.67;;;5.50;99.90;;;;;;5069748;28;20067;-46
2022/12/30 01:24:41;;;;;;;23.10;4.82;;;5.40;99.90;;;;;;5069801;28;20080;-48
2022/12/30 01:27:07;;;;;;;23.83;4.88;;;5.50;99.90;;;;;;5070389;28;20076;-49
2022/12/30 01:29:36;;;;;;;19.92;4.32;;;5.40;99.90;;;;;;5070027;28;20036;-46
2022/12/30 01:32:03;;;;;;;21.10;3.80;;;5.60;99.90;;;;;;5069819;28;20033;-46
2022/12/30 01:34:29;;;;;;;25.05;4.30;;;5.60;99.90;;;;;;5071401;28;20640;-45
2022/12/30 01:36:55;;;;;;;22.17;3.70;;;5.70;99.90;;;;;;5074947;28;20032;-48
2022/12/30 01:39:21;;;;;;;19.05;3.63;;;5.40;99.90;;;;;;5073604;28;20044;-46
2022/12/30 01:41:47;;;;;;;17.60;3.90;;;5.70;99.90;;;;;;5068111;28;20373;-46
2022/12/30 01:44:47;;;;;;;23.60;3.92;;;5.60;99.90;;;;;;5074524;28;20037;-47
2022/12/30 01:47:19;;;;;;;24.60;4.03;;;5.70;99.90;;;;;;5073528;28;20048;-48
2022/12/30 01:49:48;;;;;;;23.60;4.50;;;5.60;99.90;;;;;;5073980;28;20475;-47
2022/12/30 01:52:17;;;;;;;21.75;3.78;;;5.60;99.90;;;;;;5077588;28;20115;-47
2022/12/30 01:54:43;;;;;;;22.95;3.67;;;5.70;99.90;;;;;;5079912;28;20634;-47
2022/12/30 01:57:09;;;;;;;22.08;3.50;;;5.30;99.90;;;;;;5073152;28;20036;-47
2022/12/30 01:59:37;;;;;;;20.15;3.55;;;5.60;99.90;;;;;;5072119;28;20032;-48
2022/12/30 02:02:02;;;;;;;24.15;3.92;;;5.40;99.90;;;;;;5072999;28;20064;-47
2022/12/30 02:04:29;;;;;;;21.38;4.22;;;5.60;99.90;;;;;;5085229;28;20513;-48
2022/12/30 02:07:06;;;;;;;22.17;3.53;;;5.40;99.90;;;;;;5075587;28;20036;-46
2022/12/30 02:09:34;;;;;;;23.30;4.35;;;5.80;99.90;;;;;;5072279;28;20433;-46
2022/12/30 02:12:01;;;;;;;20.25;3.33;;;5.30;99.90;;;;;;5079022;28;20154;-46
2022/12/30 02:14:30;;;;;;;22.50;3.35;;;5.60;99.90;;;;;;5073190;28;20071;-46
2022/12/30 02:17:32;;;;;;;22.20;4.25;;;5.70;99.90;;;;;;5073309;28;20063;-50
2022/12/30 02:20:35;;;;;;;19.33;3.38;;;5.50;99.90;;;;;;5073305;28;20439;-47
2022/12/30 02:23:20;;;;;;;14.68;3.05;;;5.60;99.90;;;;;;5072069;28;20060;-46
2022/12/30 02:26:06;;;;;;;23.60;3.17;;;5.30;99.90;;;;;;5089913;28;20032;-46
2022/12/30 02:28:58;;;;;;;17.33;2.90;;;5.60;99.90;;;;;;5078696;28;20044;-46
2022/12/30 02:31:43;;;;;;;20.58;3.30;;;5.60;99.90;;;;;;5074571;28;20044;-47
2022/12/30 02:34:24;;;;;;;20.13;3.38;;;5.20;99.90;;;;;;5073063;28;20043;-49
2022/12/30 02:37:19;;;;;;;21.33;3.72;;;5.30;99.90;;;;;;5071818;28;20040;-47
2022/12/30 02:39:56;;;;;;;20.40;3.35;;;5.50;99.90;;;;;;5072546;28;20040;-47
2022/12/30 02:45:34;;;;;;;14.43;3.17;;;5.20;99.90;;;;;;5072268;28;20055;-45
2022/12/30 02:48:06;;;;;;;17.38;3.70;;;5.50;99.90;;;;;;5072382;28;20119;-49
2022/12/30 02:53:25;;;;;;;21.15;2.97;;;5.50;99.90;;;;;;5076707;28;20052;-45
2022/12/30 02:55:52;;;;;;;18.15;3.47;;;5.60;99.90;;;;;;5075432;28;20135;-46
2022/12/30 02:58:19;;;;;;;14.50;2.90;;;5.30;99.90;;;;;;5072580;28;20094;-46
2022/12/30 03:04:18;;;;;;;17.67;3.13;;;5.30;99.90;;;;;;5078880;28;20091;-46
2022/12/30 03:06:50;;;;;;;17.95;3.08;;;5.40;99.90;;;;;;5082918;28;20072;-46
2022/12/30 03:09:30;;;;;;;21.50;3.55;;;5.20;99.90;;;;;;5072336;28;20032;-47
2022/12/30 03:12:28;;;;;;;21.77;3.15;;;5.10;99.90;;;;;;5082836;28;20043;-48
2022/12/30 03:14:55;;;;;;;18.45;3.05;;;5.40;99.90;;;;;;5069749;28;20499;-48
2022/12/30 03:17:30;;;;;;;24.23;3.83;;;5.20;99.90;;;;;;5082295;28;20356;-47
2022/12/30 03:20:03;;;;;;;17.30;2.72;;;5.20;99.90;;;;;;5072344;28;20089;-49
2022/12/30 03:28:08;;;;;;;18.77;3.38;;;5.20;99.90;;;;;;5084337;28;20181;-50
2022/12/30 03:30:46;;;;;;;11.95;2.90;;;5.10;99.90;;;;;;5072559;28;20577;-47
2022/12/30 03:33:13;;;;;;;18.67;3.33;;;4.90;99.90;;;;;;5082481;28;20495;-46
2022/12/30 03:35:46;;;;;;;16.27;3.08;;;5.20;99.90;;;;;;5073030;28;20403;-50
2022/12/30 03:38:13;;;;;;;16.95;2.72;;;5.10;99.90;;;;;;5071614;28;20044;-46
2022/12/30 03:40:42;;;;;;;11.50;2.60;;;5.20;99.90;;;;;;5071668;28;20498;-47
2022/12/30 03:43:10;;;;;;;19.20;2.70;;;5.20;99.90;;;;;;5071388;28;20496;-47
2022/12/30 03:45:36;;;;;;;12.40;2.53;;;5.00;99.90;;;;;;5075303;28;20036;-47
2022/12/30 03:48:02;;;;;;;21.50;3.42;;;5.00;99.90;;;;;;5070896;28;20056;-47
2022/12/30 03:50:27;;;;;;;16.80;2.92;;;5.00;99.90;;;;;;5081450;28;20383;-45
2022/12/30 03:52:53;;;;;;;14.55;2.72;;;5.10;99.90;;;;;;5079393;28;20036;-50
2022/12/30 03:55:19;;;;;;;12.65;2.72;;;4.90;99.90;;;;;;5082754;28;20040;-48
2022/12/30 03:57:45;;;;;;;17.02;3.63;;;5.30;99.90;;;;;;5070981;28;20094;-48
2022/12/30 04:00:11;;;;;;;16.70;3.17;;;4.90;99.90;;;;;;5082895;28;20043;-50
2022/12/30 04:02:38;;;;;;;22.42;3.90;;;4.80;99.90;;;;;;5074226;28;20086;-47
2022/12/30 04:05:05;;;;;;;14.15;2.80;;;5.20;99.90;;;;;;5072002;28;20487;-48
2022/12/30 04:07:31;;;;;;;18.38;3.40;;;5.10;99.90;;;;;;5075831;28;20039;-47
2022/12/30 04:09:57;;;;;;;15.52;2.83;;;5.00;99.90;;;;;;5079759;28;20039;-45
2022/12/30 04:12:23;;;;;;;17.25;3.17;;;4.60;99.90;;;;;;5070269;28;20041;-45
2022/12/30 04:14:48;;;;;;;16.60;3.70;;;4.90;99.90;;;;;;5082802;28;20391;-47
2022/12/30 04:17:14;;;;;;;17.48;3.50;;;4.50;99.90;;;;;;5073029;28;20032;-49
2022/12/30 04:19:40;;;;;;;22.85;4.22;;;4.50;99.90;;;;;;5085561;28;20035;-46
2022/12/30 04:22:06;;;;;;;13.45;3.55;;;4.50;99.90;;;;;;5071149;28;20055;-50
2022/12/30 04:24:31;;;;;;;19.15;4.28;;;4.40;99.90;;;;;;5070845;28;20044;-46
2022/12/30 04:26:57;;;;;;;17.00;3.88;;;4.30;99.90;;;;;;5070567;28;20055;-46
2022/12/30 04:29:23;;;;;;;13.13;3.42;;;4.70;99.90;;;;;;5070581;28;20032;-46
2022/12/30 04:31:48;;;;;;;19.33;3.40;;;4.50;99.90;;;;;;5069065;28;20044;-50
2022/12/30 04:34:14;;;;;;;20.05;3.55;;;4.50;99.90;;;;;;5070954;28;20459;-48
2022/12/30 04:36:42;;;;;;;20.27;3.63;;;4.30;99.90;;;;;;5071116;28;20082;-48
2022/12/30 04:39:07;;;;;;;19.70;3.38;;;4.40;99.90;;;;;;5070729;28;20032;-49
2022/12/30 04:41:33;;;;;;;19.40;4.05;;;4.30;99.90;;;;;;5068892;28;20377;-46
2022/12/30 04:44:01;;;;;;;18.88;4.18;;;4.10;99.90;;;;;;5070296;28;20042;-46
2022/12/30 04:46:28;;;;;;;15.95;4.00;;;4.60;99.90;;;;;;5080294;28;20122;-48
2022/12/30 04:48:54;;;;;;;12.05;3.47;;;4.20;99.90;;;;;;5087099;28;20040;-48
2022/12/30 04:51:19;;;;;;;18.80;3.97;;;4.40;99.90;;;;;;5079399;28;20044;-45
2022/12/30 04:53:45;;;;;;;16.52;3.47;;;4.80;99.90;;;;;;5070848;28;20029;-47
2022/12/30 04:56:11;;;;;;;23.75;4.68;;;4.20;99.90;;;;;;5070430;28;20040;-48
2022/12/30 04:58:37;;;;;;;11.98;3.70;;;4.40;99.90;;;;;;5070797;28;20079;-46
2022/12/30 05:01:02;;;;;;;14.55;3.63;;;4.60;99.90;;;;;;5069959;28;20036;-46
2022/12/30 05:03:28;;;;;;;14.15;3.55;;;4.70;99.90;;;;;;5070482;28;20032;-47
2022/12/30 05:05:54;;;;;;;13.32;4.10;;;4.60;99.90;;;;;;5068965;28;20045;-45
2022/12/30 05:08:19;;;;;;;12.82;3.22;;;4.60;99.90;;;;;;5070300;28;20484;-50
2022/12/30 05:10:45;;;;;;;17.67;3.97;;;4.30;99.90;;;;;;5071344;28;20044;-47
2022/12/30 05:13:11;;;;;;;10.25;3.20;;;4.60;99.90;;;;;;5068128;28;20051;-47
2022/12/30 05:15:36;;;;;;;15.23;3.55;;;4.50;99.90;;;;;;5069244;28;20036;-48
2022/12/30 05:18:02;;;;;;;15.80;3.35;;;4.30;99.90;;;;;;5068215;28;20181;-49
2022/12/30 05:20:28;;;;;;;12.85;3.50;;;4.40;99.90;;;;;;5074477;28;20178;-47
2022/12/30 05:22:54;;;;;;;18.33;3.72;;;4.70;99.90;;;;;;5072164;28;20514;-48
2022/12/30 05:28:03;;;;;;;18.80;3.88;;;4.30;99.90;;;;;;5069419;28;20040;-47
2022/12/30 05:30:29;;;;;;;18.75;3.35;;;4.30;99.90;;;;;;5078619;28;20052;-49
2022/12/30 05:32:55;;;;;;;21.10;3.85;;;4.80;99.90;;;;;;5069396;28;20369;-50
2022/12/30 05:35:21;;;;;;;18.70;3.72;;;4.20;99.90;;;;;;5073325;28;20448;-47
2022/12/30 05:37:46;;;;;;;15.15;2.85;;;5.20;99.90;;;;;;5082872;28;20036;-48
2022/12/30 05:40:12;;;;;;;17.08;3.05;;;4.40;99.90;;;;;;5067609;28;20040;-45
2022/12/30 05:42:38;;;;;;;15.95;3.67;;;4.30;99.90;;;;;;5069716;28;20036;-48
2022/12/30 05:45:05;;;;;;;16.35;2.97;;;4.20;99.90;;;;;;5070429;28;20040;-48
2022/12/30 05:47:31;;;;;;;11.77;3.22;;;4.60;99.90;;;;;;5074856;28;20475;-47
2022/12/30 05:49:57;;;;;;;14.52;3.13;;;4.50;99.90;;;;;;5073783;28;20047;-46
2022/12/30 05:52:22;;;;;;;17.85;3.22;;;4.10;99.90;;;;;;5069465;28;20050;-46
2022/12/30 05:54:48;;;;;;;12.90;2.67;;;4.30;99.90;;;;;;5067067;28;20130;-47
2022/12/30 05:57:14;;;;;;;14.43;3.25;;;4.10;99.90;;;;;;5069477;28;20033;-48
2022/12/30 05:59:40;;;;;;;16.95;2.92;;;4.40;99.90;;;;;;5080549;28;20111;-45
2022/12/30 06:02:05;;;;;;;13.55;3.20;;;4.10;99.90;;;;;;5075378;28;20578;-47
2022/12/30 06:04:31;;;;;;;18.42;3.33;;;4.10;99.90;;;;;;5069640;28;20036;-47
2022/12/30 06:06:57;;;;;;;17.08;3.70;;;4.20;99.90;;;;;;5080592;28;20036;-48
2022/12/30 06:09:23;;;;;;;17.70;2.97;;;4.10;99.90;;;;;;5076954;28;20040;-48
2022/12/30 06:11:48;;;;;;;12.95;3.05;;;4.60;99.90;;;;;;5069566;28;20110;-46
2022/12/30 06:14:15;;;;;;;18.95;3.72;;;4.40;99.90;;;;;;5075734;28;20067;-47
2022/12/30 06:16:42;;;;;;;13.85;3.33;;;5.10;99.90;;;;;;5085707;28;20032;-47
2022/12/30 06:19:08;;;;;;;14.52;2.88;;;4.80;99.90;;;;;;5068311;28;20028;-47
2022/12/30 06:21:34;;;;;;;20.20;3.00;;;4.50;99.90;;;;;;5086832;28;20055;-46
2022/12/30 06:24:00;;;;;;;10.45;2.13;;;4.60;99.90;;;;;;5069593;28;20044;-45
2022/12/30 06:26:26;;;;;;;14.30;2.95;;;4.70;99.90;;;;;;5068958;28;20051;-46
2022/12/30 06:28:52;;;;;;;18.88;2.88;;;4.50;99.90;;;;;;5071863;28;20115;-47
2022/12/30 06:31:17;;;;;;;16.88;2.90;;;4.30;99.90;;;;;;5070631;28;20470;-48
2022/12/30 06:33:43;;;;;;;16.13;3.08;;;5.00;99.90;;;;;;5075896;28;20123;-46
2022/12/30 06:36:10;;;;;;;19.15;2.80;;;4.30;99.90;;;;;;5075211;28;20058;-46
2022/12/30 06:38:36;;;;;;;21.30;3.33;;;4.60;99.90;;;;;;5072912;28;20455;-45
2022/12/30 06:41:02;;;;;;;19.08;3.03;;;4.70;99.90;;;;;;5072501;28;20040;-47
2022/12/30 06:43:28;;;;;;;13.07;2.83;;;4.60;99.90;;;;;;5075784;28;20433;-46
2022/12/30 06:45:54;;;;;;;16.10;3.03;;;4.40;99.90;;;;;;5081572;28;20041;-50
2022/12/30 06:48:20;;;;;;;17.30;3.22;;;4.40;99.90;;;;;;5093396;28;20309;-47
2022/12/30 06:50:46;;;;;;;22.73;3.05;;;4.80;99.90;;;;;;5093198;28;20040;-46
2022/12/30 06:53:11;;;;;;;17.70;3.05;;;4.40;99.90;;;;;;5075206;28;20443;-48
2022/12/30 06:55:37;;;;;;;15.05;2.88;;;4.60;99.90;;;;;;5073650;28;20044;-50
2022/12/30 06:58:04;;;;;;;16.92;2.38;;;4.30;99.90;;;;;;5072562;28;20041;-48
2022/12/30 07:00:31;;;;;;;14.88;2.80;;;4.60;99.90;;;;;;5074873;28;20032;-46
2022/12/30 07:02:57;;;;;;;17.05;3.15;;;4.20;99.90;;;;;;5072964;28;20462;-45
2022/12/30 07:05:22;;;;;;;16.23;2.95;;;4.60;99.90;;;;;;5090525;28;20036;-48
2022/12/30 07:07:48;;;;;;;21.92;3.20;;;4.40;99.90;;;;;;5073351;28;20041;-48
2022/12/30 07:10:14;;;;;;;15.18;2.78;;;4.30;99.90;;;;;;5071838;28;20154;-48
2022/12/30 07:12:39;;;;;;;19.73;3.63;;;4.10;99.90;;;;;;5070078;28;20123;-49
2022/12/30 07:15:06;;;;;;;10.50;2.50;;;4.40;99.90;;;;;;5076392;28;20081;-47
2022/12/30 07:17:32;;;;;;;21.20;3.22;;;4.30;99.90;;;;;;5071938;28;20480;-48
2022/12/30 07:19:57;;;;;;;9.90;2.70;;;4.40;99.90;;;;;;5074712;28;20037;-49
2022/12/30 07:22:23;;;;;;;16.15;3.03;;;4.60;99.90;;;;;;5071620;28;20056;-51
2022/12/30 07:24:49;;;;;;;18.90;3.63;;;4.20;99.90;;;;;;5083828;28;20509;-52
2022/12/30 07:27:15;;;;;;;14.18;2.78;;;4.20;99.90;;;;;;5073914;28;20040;-48
2022/12/30 07:29:40;;;;;;;18.20;3.03;;;4.30;99.90;;;;;;5074885;28;20043;-47
2022/12/30 07:32:07;;;;;;;10.98;2.90;;;4.40;99.90;;;;;;5071826;28;20051;-48
2022/12/30 07:34:34;;;;;;;13.40;2.83;;;4.10;99.90;;;;;;5086021;28;20036;-47
2022/12/30 07:37:01;;;;;;;19.13;3.28;;;4.40;99.90;;;;;;5077704;28;20103;-50
2022/12/30 07:39:28;;;;;;;17.52;3.58;;;4.60;99.90;;;;;;5071239;28;20369;-49
2022/12/30 07:41:53;;;;;;;18.02;2.75;;;4.50;99.90;;;;;;5071130;28;20040;-48
2022/12/30 07:44:19;;;;;;;16.75;3.17;;;4.50;99.90;;;;;;5071505;28;20391;-51
2022/12/30 07:46:44;;;;;;;14.77;2.95;;;4.40;99.90;;;;;;5071691;28;20127;-49
2022/12/30 07:49:10;;;;;;;16.33;3.35;;;4.20;99.90;;;;;;5081972;28;20044;-46
2022/12/30 07:51:36;;;;;;;17.17;2.83;;;4.60;99.90;;;;;;5070992;28;20423;-48
2022/12/30 07:54:01;;;;;;;13.57;2.83;;;4.50;99.90;;;;;;5073372;28;20036;-46
2022/12/30 07:56:27;;;;;;;14.57;4.15;;;4.50;99.90;;;;;;5068993;28;20094;-47
2022/12/30 07:58:54;;;;;;;17.17;3.20;;;4.40;99.90;;;;;;5068085;28;20481;-49
2022/12/30 08:01:20;;;;;;;16.60;3.25;;;4.50;99.90;;;;;;5067905;28;20049;-49
2022/12/30 08:03:45;;;;;;;17.17;4.25;;;4.40;99.90;;;;;;5058097;28;20089;-49
2022/12/30 08:06:14;;;;;;;24.67;3.47;;;4.60;99.90;;;;;;5057654;28;20047;-50
2022/12/30 08:08:40;;;;;;;15.20;3.50;;;4.60;99.90;;;;;;5059886;28;20068;-50
2022/12/30 08:11:07;;;;;;;16.60;3.63;;;4.70;99.90;;;;;;5062640;28;20060;-49
2022/12/30 08:13:35;;;;;;;15.68;3.72;;;4.40;99.90;;;;;;5060454;28;20462;-50
2022/12/30 08:16:15;;;;;;;15.10;3.58;;;4.70;99.90;;;;;;5058447;28;20117;-47
2022/12/30 08:18:42;;;;;;;17.80;3.70;;;4.40;99.90;;;;;;5058775;28;20029;-49
2022/12/30 08:21:11;;;;;;;15.82;3.88;;;4.50;99.90;;;;;;5058454;28;20549;-47
2022/12/30 08:23:37;;;;;;;15.80;4.10;;;4.80;99.90;;;;;;5058879;28;20087;-47
2022/12/30 08:26:09;;;;;;;15.32;3.70;;;4.80;99.90;;;;;;5061621;28;20076;-47
2022/12/30 08:28:35;;;;;;;21.05;3.53;;;4.70;99.90;;;;;;5058354;28;20037;-48
2022/12/30 08:31:09;;;;;;;18.15;3.75;;;4.90;99.90;;;;;;5059292;28;20706;-50
2022/12/30 08:33:34;;;;;;;17.00;3.92;;;4.70;99.90;;;;;;5059915;28;20067;-47
2022/12/30 08:36:05;;;;;;;19.63;4.75;;;5.00;99.90;;;;;;5060213;28;20060;-47
2022/12/30 08:38:33;;;;;;;23.00;4.63;;;4.90;99.90;;;;;;5058852;28;20028;-47
2022/12/30 08:41:10;;;;;;;20.38;3.75;;;4.80;99.90;;;;;;5057990;28;20098;-45
2022/12/30 08:43:36;;;;;;;15.82;3.65;;;5.00;99.90;;;;;;5059416;28;20025;-48
2022/12/30 08:46:02;;;;;;;12.45;3.53;;;4.70;99.90;;;;;;5059194;28;20028;-48
2022/12/30 08:48:29;;;;;;;18.40;3.58;;;4.90;99.90;;;;;;5057983;28;20119;-50
2022/12/30 08:50:56;;;;;;;15.07;4.18;;;4.90;99.90;;;;;;5057315;28;20029;-46
2022/12/30 08:53:22;;;;;;;14.20;3.63;;;5.10;99.90;;;;;;5057130;28;20435;-47
2022/12/30 08:55:48;;;;;;;12.85;3.45;;;5.10;99.90;;;;;;5058733;28;20042;-47
2022/12/30 08:58:14;;;;;;;17.05;3.30;;;5.00;99.90;;;;;;5060357;28;20028;-46
2022/12/30 09:00:40;;;;;;;13.73;3.58;;;5.30;99.90;;;;;;5056981;28;20051;-46
2022/12/30 09:03:06;;;;;;;14.32;3.42;;;5.10;99.90;;;;;;5059023;28;20495;-48
2022/12/30 09:05:35;;;;;;;14.60;3.60;;;5.30;99.90;;;;;;5058398;28;20115;-48
2022/12/30 09:08:00;;;;;;;16.25;3.55;;;5.20;99.90;;;;;;5056747;28;20047;-47
2022/12/30 09:10:27;;;;;;;16.23;3.92;;;5.20;99.90;;;;;;5057725;28;20044;-46
2022/12/30 09:12:53;;;;;;;22.10;4.60;;;5.40;99.90;;;;;;5056722;28;20047;-48
2022/12/30 09:15:19;;;;;;;15.13;3.45;;;5.50;99.90;;;;;;5057971;28;20024;-50
2022/12/30 09:17:44;;;;;;;16.48;4.38;;;5.30;99.90;;;;;;5059008;28;20036;-47
2022/12/30 09:20:10;;;;;;;15.10;3.78;;;5.40;99.90;;;;;;5057702;28;20051;-48
2022/12/30 09:22:36;;;;;;;11.57;3.53;;;5.50;99.90;;;;;;5056094;28;20346;-48
2022/12/30 09:25:03;;;;;;;14.48;3.72;;;5.40;99.90;;;;;;5058736;28;20052;-48
2022/12/30 09:27:29;;;;;;;12.77;3.80;;;5.70;99.90;;;;;;5059008;28;20557;-47
2022/12/30 09:29:55;;;;;;;17.23;3.90;;;5.90;99.90;;;;;;5057554;28;20032;-47
2022/12/30 09:32:21;;;;;;;14.55;3.65;;;5.70;99.90;;;;;;5059450;28;20037;-50
2022/12/30 09:34:46;;;;;;;14.05;3.78;;;5.60;99.90;;;;;;5058698;28;20039;-46
2022/12/30 09:37:13;;;;;;;13.55;3.63;;;5.90;99.90;;;;;;5056445;28;20048;-45
2022/12/30 09:39:38;;;;;;;13.35;3.95;;;5.60;99.90;;;;;;5057208;28;20040;-48
2022/12/30 09:44:49;;;;;;;12.38;3.30;;;5.70;99.90;;;;;;5057729;28;20079;-46
2022/12/30 09:47:29;;;;;;;13.15;3.42;;;5.80;99.90;;;;;;5058623;28;20036;-47
2022/12/30 09:50:16;;;;;;;16.20;3.95;;;5.70;99.90;;;;;;5056919;28;20032;-51
2022/12/30 09:52:52;;;;;;;12.65;3.03;;;5.90;99.90;;;;;;5057972;28;20045;-46
2022/12/30 09:55:31;;;;;;;15.13;3.97;;;5.90;99.90;;;;;;5056846;28;20044;-45
2022/12/30 09:58:01;;;;;;;13.82;3.25;;;5.80;99.90;;;;;;5053105;28;20044;-48
2022/12/30 10:00:32;;;;;;;10.18;3.47;;;6.10;99.90;;;;;;5053498;28;20024;-46
2022/12/30 10:03:04;;;;;;;12.77;3.33;;;5.90;99.90;;;;;;5058939;28;20052;-48
2022/12/30 10:05:51;;;;;;;12.75;3.53;;;6.00;99.90;;;;;;5059259;28;20068;-45
2022/12/30 10:08:49;;;;;;;8.55;2.75;;;6.10;99.90;;;;;;5062769;28;20040;-48
2022/12/30 10:11:42;;;;;;;11.45;3.20;;;6.10;99.90;;;;;;5060851;28;20040;-45
2022/12/30 10:14:41;;;;;;;8.90;2.80;;;6.20;99.90;;;;;;5061410;28;20105;-46
2022/12/30 10:17:44;;;;;;;12.27;2.80;;;6.30;99.90;;;;;;5060697;28;20040;-47
2022/12/30 10:20:41;;;;;;;8.95;2.45;;;6.30;99.90;;;;;;5061743;28;20044;-48
2022/12/30 10:23:22;;;;;;;8.18;2.13;;;6.30;99.90;;;;;;5063621;28;20076;-49
2022/12/30 10:26:08;;;;;;;8.90;2.60;;;6.50;99.90;;;;;;5061136;28;20103;-46
2022/12/30 10:28:40;;;;;;;7.72;2.22;;;6.50;99.90;;;;;;5061611;28;20029;-47
2022/12/30 10:31:12;;;;;;;11.85;2.60;;;6.50;99.90;;;;;;5060504;28;20114;-47
2022/12/30 10:33:38;;;;;;;9.90;2.30;;;6.60;99.90;;;;;;5060343;28;20067;-46
2022/12/30 10:36:17;;;;;;;8.30;2.10;;;6.50;99.90;;;;;;5059012;28;20033;-45
2022/12/30 10:38:43;;;;;;;7.13;2.22;;;6.50;99.90;;;;;;5059624;28;20108;-46
2022/12/30 10:41:26;;;;;;;9.77;2.40;;;6.50;99.90;;;;;;5057992;28;20108;-50
2022/12/30 10:44:19;;;;;;;8.32;2.65;;;6.50;99.90;;;;;;5062825;28;20396;-49
2022/12/30 10:46:56;;;;;;;8.93;2.50;;;6.50;99.90;;;;;;5062096;28;20032;-44
2022/12/30 10:49:56;;;;;;;11.77;2.40;;;6.50;99.90;;;;;;5057887;28;20040;-46
2022/12/30 10:52:22;;;;;;;7.80;2.20;;;6.60;99.90;;;;;;5060465;28;20484;-49
2022/12/30 10:54:48;;;;;;;8.05;2.05;;;6.60;99.90;;;;;;5060438;28;20106;-45
2022/12/30 10:57:18;;;;;;;7.43;2.17;;;6.50;99.90;;;;;;5059980;28;20106;-47
2022/12/30 10:59:45;;;;;;;7.47;1.80;;;6.60;99.90;;;;;;5060420;28;20032;-48
2022/12/30 11:02:24;;;;;;;7.22;1.98;;;6.50;99.90;;;;;;5059471;28;20507;-48
2022/12/30 11:04:50;;;;;;;7.57;2.05;;;6.60;99.90;;;;;;5058894;28;20501;-46
2022/12/30 11:07:16;;;;;;;9.80;2.30;;;6.60;99.90;;;;;;5060909;28;20044;-48
2022/12/30 11:09:46;;;;;;;8.18;2.25;;;6.60;99.90;;;;;;5060169;28;20053;-48
2022/12/30 11:15:06;;;;;;;10.95;2.35;;;6.70;99.90;;;;;;5061764;28;20504;-47
2022/12/30 11:17:46;;;;;;;9.30;2.13;;;6.70;99.90;;;;;;5058253;28;20028;-50
2022/12/30 11:20:12;;;;;;;7.28;1.88;;;6.80;99.90;;;;;;5056624;28;20032;-49
2022/12/30 11:22:45;;;;;;;10.60;2.25;;;6.80;99.90;;;;;;5059084;28;20055;-46
2022/12/30 11:25:43;;;;;;;6.55;1.60;;;6.80;99.90;;;;;;5058149;28;20368;-46
2022/12/30 11:28:20;;;;;;;10.02;2.13;;;7.20;99.90;;;;;;5058998;28;20546;-49
2022/12/30 11:30:54;;;;;;;8.50;2.03;;;6.80;99.90;;;;;;5059175;28;20040;-44
2022/12/30 11:33:31;;;;;;;10.10;1.80;;;6.90;99.90;;;;;;5059422;28;20444;-46
2022/12/30 11:36:28;;;;;;;8.80;2.17;;;7.00;99.90;;;;;;5061255;28;20029;-45
2022/12/30 11:39:15;;;;;;;8.13;1.92;;;7.00;99.90;;;;;;5060942;28;20430;-48
2022/12/30 11:42:01;;;;;;;7.40;1.83;;;7.30;99.90;;;;;;5049526;28;20144;-50
2022/12/30 11:44:32;;;;;;;9.80;1.98;;;7.10;99.90;;;;;;5059041;28;20037;-49
2022/12/30 11:47:06;;;;;;;8.85;2.00;;;7.20;99.90;;;;;;5062169;28;20045;-47
2022/12/30 11:49:32;;;;;;;;;;;7.20;99.90;;;;;;5060429;28;20373;-45
2022/12/30 11:52:15;;;;;;;11.30;2.05;;;7.20;99.90;;;;;;5060816;28;19927;-49
2022/12/30 11:54:50;;;;;;;7.07;2.03;;;7.30;99.90;;;;;;5060110;28;20033;-48
2022/12/30 11:57:18;;;;;;;;;;;7.40;99.90;;;;;;5058370;28;20036;-47
2022/12/30 11:59:47;;;;;;;8.93;2.10;;;7.40;99.90;;;;;;5059040;28;20339;-49
2022/12/30 12:02:27;;;;;;;8.93;2.00;;;7.50;99.90;;;;;;5071178;28;20042;-48
2022/12/30 12:04:53;;;;;;;7.53;1.75;;;7.50;99.90;;;;;;5059205;28;20072;-48
2022/12/30 12:07:24;;;;;;;8.25;1.50;;;7.60;99.90;;;;;;5057176;28;20029;-49
2022/12/30 12:09:59;;;;;;;8.45;2.15;;;7.50;99.90;;;;;;5058113;28;20040;-46
2022/12/30 12:12:30;;;;;;;6.43;1.85;;;7.60;99.90;;;;;;5056630;28;20041;-47
2022/12/30 12:15:04;;;;;;;10.10;1.92;;;7.60;99.90;;;;;;5057870;28;20119;-49
2022/12/30 12:17:57;;;;;;;8.50;1.80;;;7.60;99.90;;;;;;5060406;28;20059;-47
2022/12/30 12:21:00;;;;;;;7.20;1.70;;;7.60;99.90;;;;;;5058489;28;20079;-49
2022/12/30 12:23:51;;;;;;;8.35;1.77;;;7.70;99.90;;;;;;5056010;28;20061;-47
2022/12/30 12:26:21;;;;;;;7.07;1.50;;;7.80;99.90;;;;;;5055036;28;20131;-48
2022/12/30 12:28:48;;;;;;;7.25;1.60;;;7.80;99.90;;;;;;5065450;28;20040;-44
2022/12/30 12:31:38;;;;;;;4.80;1.55;;;7.80;99.90;;;;;;5072784;28;20356;-47
2022/12/30 12:34:09;;;;;;;6.32;1.60;;;7.90;99.90;;;;;;5067315;28;20032;-48
2022/12/30 12:36:44;;;;;;;8.35;1.70;;;8.10;99.90;;;;;;5070436;28;20179;-47
2022/12/30 12:39:12;;;;;;;5.78;1.58;;;7.90;99.90;;;;;;5070132;28;20083;-48
2022/12/30 12:41:51;;;;;;;8.48;1.73;;;8.00;99.90;;;;;;5069741;28;20040;-48
2022/12/30 12:44:19;;;;;;;9.52;1.65;;;7.90;99.90;;;;;;5066883;28;20056;-48
2022/12/30 12:46:51;;;;;;;4.38;1.33;;;8.10;99.90;;;;;;5069540;28;20040;-48
2022/12/30 12:49:22;;;;;;;5.18;1.20;;;8.10;99.90;;;;;;5069542;28;20396;-46
2022/12/30 12:51:59;;;;;;;10.65;1.52;;;8.10;99.90;;;;;;5080821;28;20055;-46
2022/12/30 12:54:27;;;;;;;6.82;1.60;;;8.20;99.90;;;;;;5088911;28;20047;-50
2022/12/30 12:56:56;;;;;;;6.75;1.65;;;8.20;99.90;;;;;;5079138;28;20388;-47
2022/12/30 12:59:45;;;;;;;10.55;2.10;;;8.20;99.90;;;;;;5071830;28;20480;-49
2022/12/30 13:02:30;;;;;;;6.70;1.40;;;8.20;99.90;;;;;;5068869;28;20046;-48
2022/12/30 13:05:02;;;;;;;;;;;8.20;99.90;;;;;;5068398;28;20055;-51
2022/12/30 13:07:56;;;;;;;5.88;1.52;;;8.30;99.90;;;;;;5050744;28;19999;-47
2022/12/30 13:11:00;;;;;;;7.30;1.65;;;8.30;99.90;;;;;;5068042;28;20045;-47
2022/12/30 13:13:36;;;;;;;7.18;1.65;;;8.40;99.90;;;;;;5068396;28;20044;-51
2022/12/30 13:16:10;;;;;;;5.18;1.45;;;8.40;99.90;;;;;;5067641;28;20044;-51
2022/12/30 13:18:39;;;;;;;5.93;1.40;;;8.50;99.90;;;;;;5069928;28;20032;-47
2022/12/30 13:21:09;;;;;;;6.97;1.30;;;8.60;99.90;;;;;;5070283;28;20078;-51
2022/12/30 13:23:47;;;;;;;6.38;1.60;;;8.60;99.90;;;;;;5067441;28;20088;-50
2022/12/30 13:26:12;;;;;;;6.82;1.83;;;8.60;99.90;;;;;;5069166;28;20132;-48
2022/12/30 13:28:39;;;;;;;8.63;2.75;;;8.50;99.90;;;;;;5069038;28;20119;-48
2022/12/30 13:31:26;;;;;;;7.25;1.30;;;8.60;99.90;;;;;;5068680;28;20062;-44
2022/12/30 13:34:03;;;;;;;6.75;1.40;;;8.60;99.90;;;;;;5066613;28;20033;-50
2022/12/30 13:36:37;;;;;;;8.40;1.52;;;8.60;99.90;;;;;;5066725;28;20442;-46
2022/12/30 13:39:03;;;;;;;;;;;8.60;99.90;;;;;;5064077;28;20060;-46
2022/12/30 13:42:04;;;;;;;9.43;1.77;;;8.60;99.90;;;;;;5065386;28;19932;-48
2022/12/30 13:44:35;;;;;;;6.70;1.73;;;8.70;99.90;;;;;;5064653;28;20111;-46
2022/12/30 13:47:01;;;;;;;6.95;1.52;;;8.70;99.90;;;;;;5065286;28;20040;-50
2022/12/30 13:49:39;;;;;;;8.15;1.73;;;8.70;99.90;;;;;;5067959;28;20121;-49
2022/12/30 13:52:19;;;;;;;5.63;1.35;;;8.70;99.90;;;;;;5070714;28;20041;-49
2022/12/30 13:54:53;;;;;;;8.23;1.85;;;8.60;99.90;;;;;;5072775;28;20067;-49
2022/12/30 13:57:47;;;;;;;6.07;1.48;;;8.60;99.90;;;;;;5070963;28;20025;-46
2022/12/30 14:00:19;;;;;;;7.65;1.77;;;8.60;99.90;;;;;;5049637;28;20701;-49
2022/12/30 14:02:57;;;;;;;6.80;2.40;;;8.60;99.90;;;;;;5071423;28;20045;-49
2022/12/30 14:05:31;;;;;;;8.93;1.60;;;8.50;99.90;;;;;;5071943;28;20115;-49